createdAt,value
2019-03-20T00:02:49.274Z,3.23
2019-03-20T00:06:56.541Z,3.23
2019-03-20T00:11:03.471Z,3.15
2019-03-20T00:15:12.010Z,3.21
2019-03-20T00:19:19.014Z,3.13
2019-03-20T00:23:26.033Z,3.15
2019-03-20T00:27:33.058Z,3.02
2019-03-20T00:31:39.882Z,2.95
2019-03-20T00:35:47.929Z,2.84
2019-03-20T00:39:54.877Z,2.74
2019-03-20T00:44:01.732Z,2.85
2019-03-20T00:48:08.621Z,2.80
2019-03-20T00:52:15.555Z,2.88
2019-03-20T00:56:22.476Z,2.75
2019-03-20T01:00:29.436Z,2.80
2019-03-20T01:04:36.280Z,2.82
2019-03-20T01:08:43.107Z,2.78
2019-03-20T01:12:50.106Z,2.55
2019-03-20T01:16:57.269Z,2.47
2019-03-20T01:21:04.214Z,2.27
2019-03-20T01:25:12.386Z,2.21
2019-03-20T01:29:19.325Z,2.22
2019-03-20T01:33:26.270Z,2.18
2019-03-20T01:37:33.123Z,2.25
2019-03-20T01:41:40.017Z,2.09
2019-03-20T01:45:46.869Z,2.05
2019-03-20T01:49:53.687Z,2.08
2019-03-20T01:54:00.513Z,2.09
2019-03-20T01:58:07.598Z,2.07
2019-03-20T02:02:14.800Z,2.01
2019-03-20T02:06:21.764Z,2.10
2019-03-20T02:10:28.601Z,1.90
2019-03-20T02:14:35.665Z,1.82
2019-03-20T02:18:42.635Z,1.84
2019-03-20T02:22:49.627Z,1.88
2019-03-20T02:26:56.441Z,1.80
2019-03-20T02:31:03.261Z,1.81
2019-03-20T02:35:10.314Z,1.90
2019-03-20T02:39:17.415Z,2.00
2019-03-20T02:43:24.367Z,1.84
2019-03-20T02:47:31.221Z,1.91
2019-03-20T02:51:38.107Z,1.75
2019-03-20T02:55:45.029Z,1.65
2019-03-20T02:59:51.898Z,1.64
2019-03-20T03:03:58.852Z,1.55
2019-03-20T03:08:05.921Z,1.60
2019-03-20T03:12:12.848Z,1.56
2019-03-20T03:16:19.816Z,1.54
2019-03-20T03:20:26.632Z,1.52
2019-03-20T03:24:33.566Z,1.48
2019-03-20T03:28:40.442Z,1.34
2019-03-20T03:32:47.712Z,1.39
2019-03-20T03:36:54.636Z,1.30
2019-03-20T03:41:01.529Z,1.35
2019-03-20T03:45:10.075Z,1.26
2019-03-20T03:49:17.012Z,1.40
2019-03-20T03:53:24.072Z,1.41
2019-03-20T03:57:31.034Z,1.42
2019-03-20T04:01:37.838Z,1.27
2019-03-20T04:05:44.690Z,1.17
2019-03-20T04:09:51.546Z,0.94
2019-03-20T04:13:58.396Z,0.90
2019-03-20T04:18:05.528Z,0.85
2019-03-20T04:22:12.442Z,0.79
2019-03-20T04:26:20.341Z,0.79
2019-03-20T04:30:27.197Z,0.72
2019-03-20T04:34:34.062Z,0.75
2019-03-20T04:38:41.581Z,0.71
2019-03-20T04:42:48.437Z,0.49
2019-03-20T04:46:55.314Z,0.70
2019-03-20T04:51:02.239Z,0.76
2019-03-20T04:55:09.551Z,0.64
2019-03-20T04:59:16.611Z,0.65
2019-03-20T05:03:23.585Z,0.71
2019-03-20T05:07:31.251Z,0.69
2019-03-20T05:11:38.441Z,0.78
2019-03-20T05:15:45.383Z,0.73
2019-03-20T05:19:52.528Z,0.79
2019-03-20T05:23:59.813Z,0.80
2019-03-20T05:28:06.928Z,0.82
2019-03-20T05:32:14.906Z,0.76
2019-03-20T05:36:23.668Z,0.87
2019-03-20T05:40:30.558Z,0.92
2019-03-20T05:44:37.561Z,0.95
2019-03-20T05:48:44.727Z,1.02
2019-03-20T05:52:51.966Z,1.10
2019-03-20T05:56:59.145Z,1.10
2019-03-20T06:01:06.681Z,1.15
2019-03-20T06:05:14.141Z,1.17
2019-03-20T06:09:21.391Z,1.21
2019-03-20T06:13:28.380Z,1.25
2019-03-20T06:17:35.532Z,1.31
2019-03-20T06:21:42.383Z,1.41
2019-03-20T06:25:51.419Z,1.41
2019-03-20T06:29:58.130Z,1.39
2019-03-20T06:34:05.071Z,1.47
2019-03-20T06:38:12.103Z,1.61
2019-03-20T06:42:20.079Z,1.64
2019-03-20T06:46:27.158Z,1.75
2019-03-20T06:50:34.056Z,1.89
2019-03-20T06:54:41.913Z,1.84
2019-03-20T06:58:50.400Z,1.83
2019-03-20T07:02:58.193Z,2.31
2019-03-20T07:07:43.679Z,2.07
2019-03-20T07:11:43.527Z,2.26
2019-03-20T07:19:56.266Z,1.96
2019-03-20T07:24:03.384Z,2.40
2019-03-20T07:28:10.613Z,2.43
2019-03-20T07:32:17.861Z,2.38
2019-03-20T07:49:33.484Z,2.94
2019-03-20T07:53:42.929Z,3.25
2019-03-20T07:57:50.108Z,3.55
2019-03-20T08:02:00.183Z,3.81
2019-03-20T08:06:07.648Z,4.12
2019-03-20T08:10:15.339Z,4.30
2019-03-20T08:14:33.591Z,4.32
2019-03-20T08:18:41.254Z,4.62
2019-03-20T08:22:48.391Z,5.16
2019-03-20T08:26:58.766Z,5.28
2019-03-20T08:31:06.348Z,6.13
2019-03-20T08:35:13.599Z,7.00
2019-03-20T08:39:21.033Z,6.90
2019-03-20T08:43:29.910Z,7.85
2019-03-20T08:47:36.880Z,8.33
2019-03-20T08:51:44.136Z,8.22
2019-03-20T08:55:51.001Z,9.02
2019-03-20T09:00:01.367Z,9.71
2019-03-20T09:04:09.795Z,10.53
2019-03-20T09:08:16.887Z,10.57
2019-03-20T09:12:23.842Z,11.48
2019-03-20T09:16:31.998Z,10.97
2019-03-20T09:20:39.192Z,11.65
2019-03-20T09:24:46.658Z,12.28
2019-03-20T09:28:53.767Z,12.32
2019-03-20T09:33:01.816Z,12.73
2019-03-20T09:37:12.281Z,12.54
2019-03-20T09:41:19.576Z,13.15
2019-03-20T09:45:26.955Z,13.48
2019-03-20T09:49:40.532Z,12.15
2019-03-20T09:53:47.692Z,12.41
2019-03-20T09:57:54.941Z,12.91
2019-03-20T10:02:02.999Z,12.44
2019-03-20T10:06:10.350Z,12.40
2019-03-20T10:10:20.225Z,12.76
2019-03-20T10:14:33.412Z,12.36
2019-03-20T10:18:41.655Z,12.95
2019-03-20T10:22:50.601Z,12.77
2019-03-20T10:26:57.914Z,12.73
2019-03-20T10:31:08.319Z,12.58
2019-03-20T10:35:16.557Z,13.20
2019-03-20T10:39:25.379Z,13.07
2019-03-20T10:43:34.211Z,12.72
2019-03-20T10:47:41.710Z,13.62
2019-03-20T10:51:49.009Z,14.07
2019-03-20T10:55:56.281Z,13.96
2019-03-20T11:00:05.097Z,13.83
2019-03-20T11:04:13.056Z,14.14
2019-03-20T11:08:20.215Z,14.42
2019-03-20T11:12:27.336Z,14.37
2019-03-20T11:16:34.493Z,14.46
2019-03-20T11:20:41.500Z,14.66
2019-03-20T11:24:51.512Z,15.39
2019-03-20T11:29:02.087Z,14.92
2019-03-20T11:33:21.569Z,15.53
2019-03-20T11:37:43.308Z,15.26
2019-03-20T11:41:51.483Z,15.52
2019-03-20T11:45:58.590Z,15.89
2019-03-20T11:50:15.990Z,16.17
2019-03-20T11:54:23.313Z,16.72
2019-03-20T11:58:36.857Z,15.53
2019-03-20T12:02:47.459Z,16.04
2019-03-20T12:06:55.460Z,16.77
2019-03-20T12:11:10.886Z,16.92
2019-03-20T12:15:21.314Z,16.84
2019-03-20T12:19:32.231Z,16.35
2019-03-20T12:23:45.413Z,16.81
2019-03-20T12:27:58.652Z,17.08
2019-03-20T12:32:08.548Z,17.81
2019-03-20T12:36:15.814Z,18.13
2019-03-20T12:40:26.995Z,17.15
2019-03-20T12:44:49.333Z,17.21
2019-03-20T12:49:11.466Z,18.14
2019-03-20T12:53:19.159Z,18.38
2019-03-20T12:57:43.575Z,18.36
2019-03-20T13:01:53.142Z,18.35
2019-03-20T13:06:04.902Z,18.46
2019-03-20T13:10:24.563Z,18.33
2019-03-20T13:14:39.370Z,19.04
2019-03-20T13:18:58.229Z,18.67
2019-03-20T13:23:14.417Z,18.30
2019-03-20T13:27:25.565Z,17.70
2019-03-20T13:31:34.173Z,18.33
2019-03-20T13:36:09.152Z,18.89
2019-03-20T13:40:16.802Z,19.25
2019-03-20T13:44:24.000Z,19.13
2019-03-20T13:48:39.318Z,18.87
2019-03-20T13:52:49.645Z,19.49
2019-03-20T13:57:02.329Z,18.86
2019-03-20T14:17:53.345Z,18.07
2019-03-20T14:22:15.542Z,17.28
2019-03-20T14:26:49.070Z,16.51
2019-03-20T14:31:24.095Z,16.34
2019-03-20T14:35:42.991Z,17.25
2019-03-20T14:50:31.270Z,16.59
2019-03-20T15:10:34.643Z,15.37
2019-03-20T15:15:31.146Z,14.50
2019-03-20T15:19:54.291Z,14.73
2019-03-20T15:25:11.983Z,14.52
2019-03-20T15:33:43.980Z,13.68
2019-03-20T15:37:50.950Z,13.85
2019-03-20T15:42:00.615Z,13.90
2019-03-20T15:46:17.883Z,13.15
2019-03-20T15:50:28.117Z,13.29
2019-03-20T15:54:35.049Z,13.52
2019-03-20T15:58:44.424Z,13.36
2019-03-20T16:03:01.857Z,13.24
2019-03-20T16:07:17.437Z,13.23
2019-03-20T16:11:25.559Z,12.94
2019-03-20T16:15:33.549Z,12.98
2019-03-20T16:19:44.324Z,12.89
2019-03-20T16:23:51.503Z,12.71
2019-03-20T16:28:10.889Z,12.64
2019-03-20T16:43:30.353Z,12.29
2019-03-20T16:47:39.389Z,12.23
2019-03-20T16:52:24.231Z,12.00
2019-03-20T16:56:45.887Z,11.97
2019-03-20T17:01:47.722Z,12.05
2019-03-20T17:06:48.542Z,11.92
2019-03-20T17:10:58.166Z,11.83
2019-03-20T17:15:20.198Z,11.77
2019-03-20T17:25:13.246Z,11.66
2019-03-20T17:29:08.994Z,11.54
2019-03-20T17:33:11.649Z,11.42
2019-03-20T17:38:24.433Z,11.33
2019-03-20T17:42:32.447Z,11.24
2019-03-20T17:46:40.382Z,11.16
2019-03-20T17:51:10.762Z,11.07
2019-03-20T17:55:39.072Z,11.03
2019-03-20T18:00:23.592Z,11.01
2019-03-20T18:04:40.671Z,10.96
2019-03-20T18:09:21.413Z,10.85
2019-03-20T18:13:35.104Z,10.82
2019-03-20T18:17:46.507Z,10.75
2019-03-20T18:22:16.578Z,10.60
2019-03-20T18:26:26.688Z,10.52
2019-03-20T18:30:34.119Z,10.46
2019-03-20T18:35:04.324Z,10.39
2019-03-20T18:39:14.611Z,10.34
2019-03-20T18:43:23.928Z,10.25
2019-03-20T18:47:31.649Z,10.19
2019-03-20T18:51:50.392Z,10.14
2019-03-20T18:56:28.318Z,10.07
2019-03-20T19:01:10.109Z,9.97
2019-03-20T19:06:29.689Z,9.91
2019-03-20T19:15:45.639Z,9.83
2019-03-20T19:20:01.805Z,9.81
2019-03-20T19:24:11.776Z,9.75
2019-03-20T19:28:25.016Z,9.74
2019-03-20T19:32:33.838Z,9.73
2019-03-20T19:36:40.993Z,9.68
2019-03-20T19:40:48.768Z,9.58
2019-03-20T19:44:58.435Z,9.55
2019-03-20T19:49:05.526Z,9.56
2019-03-20T19:53:19.474Z,9.46
2019-03-20T19:57:30.290Z,9.42
2019-03-20T20:01:38.470Z,9.34
2019-03-20T20:05:45.373Z,9.20
2019-03-20T20:09:52.113Z,9.11
2019-03-20T20:13:59.439Z,9.09
2019-03-20T20:18:06.679Z,9.03
2019-03-20T20:22:17.643Z,9.01
2019-03-20T20:26:33.205Z,8.90
2019-03-20T20:30:46.051Z,8.83
2019-03-20T20:34:54.921Z,8.78
2019-03-20T20:39:02.274Z,8.74
2019-03-20T20:43:11.707Z,8.68
2019-03-20T20:47:21.764Z,8.62
2019-03-20T20:51:31.266Z,8.53
2019-03-20T20:55:38.374Z,8.51
2019-03-20T20:59:46.751Z,8.46
2019-03-20T21:03:53.571Z,8.43
2019-03-20T21:08:00.932Z,8.29
2019-03-20T21:12:07.777Z,8.19
2019-03-20T21:16:18.644Z,8.19
2019-03-20T21:20:26.554Z,7.98
2019-03-20T21:24:36.934Z,7.96
2019-03-20T21:29:54.770Z,7.85
2019-03-20T21:34:59.495Z,7.88
2019-03-20T21:39:09.556Z,7.89
2019-03-20T21:44:19.095Z,7.85
2019-03-20T21:48:26.869Z,7.82
2019-03-20T21:52:37.252Z,7.79
2019-03-20T21:57:16.487Z,7.70
2019-03-20T22:02:43.274Z,7.56
2019-03-20T22:07:24.882Z,7.54
2019-03-20T22:12:19.128Z,7.32
2019-03-20T22:17:15.111Z,7.27
2019-03-20T22:22:28.409Z,7.36
2019-03-20T22:27:47.207Z,7.32
2019-03-20T22:32:40.208Z,7.29
2019-03-20T22:36:47.979Z,7.22
2019-03-20T22:41:40.423Z,7.21
2019-03-20T22:47:14.707Z,7.17
2019-03-20T22:52:04.670Z,7.01
2019-03-20T22:57:03.121Z,6.90
2019-03-20T23:01:12.752Z,6.77
2019-03-20T23:05:20.897Z,6.63
2019-03-20T23:09:28.831Z,6.51
2019-03-20T23:13:41.827Z,6.49
2019-03-20T23:17:47.629Z,6.52
2019-03-20T23:21:55.280Z,6.33
2019-03-20T23:26:02.962Z,6.26
2019-03-20T23:30:16.396Z,6.08
2019-03-20T23:34:24.042Z,6.01
2019-03-20T23:38:31.653Z,6.15
2019-03-20T23:42:39.395Z,6.00
2019-03-20T23:46:47.031Z,5.95
2019-03-20T23:51:01.108Z,5.89
2019-03-20T23:55:11.736Z,6.01
2019-03-20T23:59:19.460Z,5.74
